sensor_id;sensor_type;location;lat;lon;timestamp;temperature;humidity
78289;DHT22;67539;48.752;12.922;2023-05-25T00:02:01;14.50;94.80
78289;DHT22;67539;48.752;12.922;2023-05-25T00:04:30;14.50;94.90
78289;DHT22;67539;48.752;12.922;2023-05-25T00:07:00;14.50;94.90
78289;DHT22;67539;48.752;12.922;2023-05-25T00:09:29;14.40;94.90
78289;DHT22;67539;48.752;12.922;2023-05-25T00:11:57;14.40;94.80
78289;DHT22;67539;48.752;12.922;2023-05-25T00:14:26;14.40;95.00
78289;DHT22;67539;48.752;12.922;2023-05-25T00:16:54;14.40;95.20
78289;DHT22;67539;48.752;12.922;2023-05-25T00:19:22;14.40;95.20
78289;DHT22;67539;48.752;12.922;2023-05-25T00:21:51;14.40;95.30
78289;DHT22;67539;48.752;12.922;2023-05-25T00:24:20;14.40;95.30
78289;DHT22;67539;48.752;12.922;2023-05-25T00:26:49;14.40;95.50
78289;DHT22;67539;48.752;12.922;2023-05-25T00:29:17;14.40;95.40
78289;DHT22;67539;48.752;12.922;2023-05-25T00:31:45;14.40;95.50
78289;DHT22;67539;48.752;12.922;2023-05-25T00:34:13;14.40;95.40
78289;DHT22;67539;48.752;12.922;2023-05-25T00:36:42;14.40;95.40
78289;DHT22;67539;48.752;12.922;2023-05-25T00:39:14;14.40;95.40
78289;DHT22;67539;48.752;12.922;2023-05-25T00:41:43;14.40;95.40
78289;DHT22;67539;48.752;12.922;2023-05-25T00:44:14;14.40;95.60
78289;DHT22;67539;48.752;12.922;2023-05-25T00:46:49;14.40;95.60
78289;DHT22;67539;48.752;12.922;2023-05-25T00:49:19;14.40;95.60
78289;DHT22;67539;48.752;12.922;2023-05-25T00:51:50;14.40;95.80
78289;DHT22;67539;48.752;12.922;2023-05-25T00:54:19;14.40;95.60
78289;DHT22;67539;48.752;12.922;2023-05-25T00:56:50;14.40;95.80
78289;DHT22;67539;48.752;12.922;2023-05-25T00:59:25;14.30;95.30
78289;DHT22;67539;48.752;12.922;2023-05-25T01:01:58;14.40;95.40
78289;DHT22;67539;48.752;12.922;2023-05-25T01:04:30;14.30;95.40
78289;DHT22;67539;48.752;12.922;2023-05-25T01:06:59;14.30;95.30
78289;DHT22;67539;48.752;12.922;2023-05-25T01:09:29;14.40;95.40
78289;DHT22;67539;48.752;12.922;2023-05-25T01:12:01;14.40;95.60
78289;DHT22;67539;48.752;12.922;2023-05-25T01:14:33;14.40;95.70
78289;DHT22;67539;48.752;12.922;2023-05-25T01:17:02;14.40;95.60
78289;DHT22;67539;48.752;12.922;2023-05-25T01:19:30;14.30;95.80
78289;DHT22;67539;48.752;12.922;2023-05-25T01:22:04;14.30;96.00
78289;DHT22;67539;48.752;12.922;2023-05-25T01:24:38;14.30;95.90
78289;DHT22;67539;48.752;12.922;2023-05-25T01:27:12;14.30;95.90
78289;DHT22;67539;48.752;12.922;2023-05-25T01:29:44;14.30;95.90
78289;DHT22;67539;48.752;12.922;2023-05-25T01:32:14;14.30;95.90
78289;DHT22;67539;48.752;12.922;2023-05-25T01:34:44;14.30;95.90
78289;DHT22;67539;48.752;12.922;2023-05-25T01:37:14;14.30;95.80
78289;DHT22;67539;48.752;12.922;2023-05-25T01:39:43;14.30;95.80
78289;DHT22;67539;48.752;12.922;2023-05-25T01:42:11;14.20;95.90
78289;DHT22;67539;48.752;12.922;2023-05-25T01:44:39;14.30;96.20
78289;DHT22;67539;48.752;12.922;2023-05-25T01:47:14;14.20;96.30
78289;DHT22;67539;48.752;12.922;2023-05-25T01:49:56;14.20;96.30
78289;DHT22;67539;48.752;12.922;2023-05-25T01:52:32;14.20;96.10
78289;DHT22;67539;48.752;12.922;2023-05-25T01:55:05;14.20;96.00
78289;DHT22;67539;48.752;12.922;2023-05-25T01:57:41;14.20;96.00
78289;DHT22;67539;48.752;12.922;2023-05-25T02:00:11;14.20;96.10
78289;DHT22;67539;48.752;12.922;2023-05-25T02:02:41;14.20;96.00
78289;DHT22;67539;48.752;12.922;2023-05-25T02:05:11;14.20;95.90
78289;DHT22;67539;48.752;12.922;2023-05-25T02:07:40;14.10;95.70
78289;DHT22;67539;48.752;12.922;2023-05-25T02:10:09;14.10;95.40
78289;DHT22;67539;48.752;12.922;2023-05-25T02:12:37;14.10;95.40
78289;DHT22;67539;48.752;12.922;2023-05-25T02:15:06;14.10;95.10
78289;DHT22;67539;48.752;12.922;2023-05-25T02:17:34;14.10;94.60
78289;DHT22;67539;48.752;12.922;2023-05-25T02:20:04;14.00;94.50
78289;DHT22;67539;48.752;12.922;2023-05-25T02:22:33;14.00;94.50
78289;DHT22;67539;48.752;12.922;2023-05-25T02:25:08;14.00;94.90
78289;DHT22;67539;48.752;12.922;2023-05-25T02:27:36;14.00;95.00
78289;DHT22;67539;48.752;12.922;2023-05-25T02:30:06;14.00;94.60
78289;DHT22;67539;48.752;12.922;2023-05-25T02:32:34;13.90;94.50
78289;DHT22;67539;48.752;12.922;2023-05-25T02:35:03;14.00;94.40
78289;DHT22;67539;48.752;12.922;2023-05-25T02:37:32;13.90;94.50
78289;DHT22;67539;48.752;12.922;2023-05-25T02:40:01;13.90;94.40
78289;DHT22;67539;48.752;12.922;2023-05-25T02:42:31;13.90;94.50
78289;DHT22;67539;48.752;12.922;2023-05-25T02:44:59;13.90;94.20
78289;DHT22;67539;48.752;12.922;2023-05-25T02:47:28;13.80;94.30
78289;DHT22;67539;48.752;12.922;2023-05-25T02:49:56;13.80;94.50
78289;DHT22;67539;48.752;12.922;2023-05-25T02:52:25;13.80;94.70
78289;DHT22;67539;48.752;12.922;2023-05-25T02:54:53;13.80;94.70
78289;DHT22;67539;48.752;12.922;2023-05-25T02:57:30;13.80;94.70
78289;DHT22;67539;48.752;12.922;2023-05-25T02:59:59;13.80;94.90
78289;DHT22;67539;48.752;12.922;2023-05-25T03:02:28;13.70;94.40
78289;DHT22;67539;48.752;12.922;2023-05-25T03:04:56;13.70;94.40
78289;DHT22;67539;48.752;12.922;2023-05-25T03:07:28;13.70;94.30
78289;DHT22;67539;48.752;12.922;2023-05-25T03:09:56;13.70;94.10
78289;DHT22;67539;48.752;12.922;2023-05-25T03:12:25;13.70;94.10
78289;DHT22;67539;48.752;12.922;2023-05-25T03:14:54;13.60;94.10
78289;DHT22;67539;48.752;12.922;2023-05-25T03:17:23;13.60;94.10
78289;DHT22;67539;48.752;12.922;2023-05-25T03:19:51;13.60;94.10
78289;DHT22;67539;48.752;12.922;2023-05-25T03:22:19;13.60;94.60
78289;DHT22;67539;48.752;12.922;2023-05-25T03:24:47;13.50;94.80
78289;DHT22;67539;48.752;12.922;2023-05-25T03:27:16;13.50;94.70
78289;DHT22;67539;48.752;12.922;2023-05-25T03:29:44;13.40;94.70
78289;DHT22;67539;48.752;12.922;2023-05-25T03:32:14;13.40;94.80
78289;DHT22;67539;48.752;12.922;2023-05-25T03:34:43;13.40;94.80
78289;DHT22;67539;48.752;12.922;2023-05-25T03:37:14;13.40;94.70
78289;DHT22;67539;48.752;12.922;2023-05-25T03:39:42;13.40;94.70
78289;DHT22;67539;48.752;12.922;2023-05-25T03:42:10;13.40;94.80
78289;DHT22;67539;48.752;12.922;2023-05-25T03:44:38;13.30;94.80
78289;DHT22;67539;48.752;12.922;2023-05-25T03:47:08;13.30;94.80
78289;DHT22;67539;48.752;12.922;2023-05-25T03:49:38;13.30;94.90
78289;DHT22;67539;48.752;12.922;2023-05-25T03:52:07;13.30;95.00
78289;DHT22;67539;48.752;12.922;2023-05-25T03:54:35;13.30;95.00
78289;DHT22;67539;48.752;12.922;2023-05-25T03:57:03;13.30;95.00
78289;DHT22;67539;48.752;12.922;2023-05-25T03:59:31;13.30;95.10
78289;DHT22;67539;48.752;12.922;2023-05-25T04:01:59;13.20;95.10
78289;DHT22;67539;48.752;12.922;2023-05-25T04:04:28;13.20;95.10
78289;DHT22;67539;48.752;12.922;2023-05-25T04:06:58;13.20;94.90
78289;DHT22;67539;48.752;12.922;2023-05-25T04:09:28;13.10;94.90
78289;DHT22;67539;48.752;12.922;2023-05-25T04:11:56;13.10;94.90
78289;DHT22;67539;48.752;12.922;2023-05-25T04:14:25;13.10;94.70
78289;DHT22;67539;48.752;12.922;2023-05-25T04:16:53;13.10;94.90
78289;DHT22;67539;48.752;12.922;2023-05-25T04:19:21;13.10;94.90
78289;DHT22;67539;48.752;12.922;2023-05-25T04:21:49;13.10;94.90
78289;DHT22;67539;48.752;12.922;2023-05-25T04:24:19;13.10;94.80
78289;DHT22;67539;48.752;12.922;2023-05-25T04:26:48;13.10;94.90
78289;DHT22;67539;48.752;12.922;2023-05-25T04:29:16;13.20;95.00
78289;DHT22;67539;48.752;12.922;2023-05-25T04:32:06;13.20;95.00
78289;DHT22;67539;48.752;12.922;2023-05-25T04:35:05;13.20;95.10
78289;DHT22;67539;48.752;12.922;2023-05-25T04:37:39;13.30;95.10
78289;DHT22;67539;48.752;12.922;2023-05-25T04:40:10;13.30;95.20
78289;DHT22;67539;48.752;12.922;2023-05-25T04:42:41;13.40;95.30
78289;DHT22;67539;48.752;12.922;2023-05-25T04:45:10;13.40;95.30
78289;DHT22;67539;48.752;12.922;2023-05-25T04:47:43;13.40;95.20
78289;DHT22;67539;48.752;12.922;2023-05-25T04:50:12;13.50;95.50
78289;DHT22;67539;48.752;12.922;2023-05-25T04:52:40;13.60;95.20
78289;DHT22;67539;48.752;12.922;2023-05-25T04:55:10;13.60;95.00
78289;DHT22;67539;48.752;12.922;2023-05-25T04:57:41;13.70;94.90
78289;DHT22;67539;48.752;12.922;2023-05-25T05:00:10;13.80;94.90
78289;DHT22;67539;48.752;12.922;2023-05-25T05:02:41;13.80;94.60
78289;DHT22;67539;48.752;12.922;2023-05-25T05:05:10;13.90;94.50
78289;DHT22;67539;48.752;12.922;2023-05-25T05:07:38;13.90;94.60
78289;DHT22;67539;48.752;12.922;2023-05-25T05:10:07;13.90;94.50
78289;DHT22;67539;48.752;12.922;2023-05-25T05:12:39;14.00;94.50
78289;DHT22;67539;48.752;12.922;2023-05-25T05:15:08;14.00;94.20
78289;DHT22;67539;48.752;12.922;2023-05-25T05:17:38;14.10;94.10
78289;DHT22;67539;48.752;12.922;2023-05-25T05:20:08;14.10;94.00
78289;DHT22;67539;48.752;12.922;2023-05-25T05:22:37;14.20;93.70
78289;DHT22;67539;48.752;12.922;2023-05-25T05:25:06;14.20;93.80
78289;DHT22;67539;48.752;12.922;2023-05-25T05:27:34;14.30;93.80
78289;DHT22;67539;48.752;12.922;2023-05-25T05:30:12;14.30;93.30
78289;DHT22;67539;48.752;12.922;2023-05-25T05:32:40;14.40;93.60
78289;DHT22;67539;48.752;12.922;2023-05-25T05:35:12;14.40;93.70
78289;DHT22;67539;48.752;12.922;2023-05-25T05:37:42;14.40;93.50
78289;DHT22;67539;48.752;12.922;2023-05-25T05:40:12;14.50;93.40
78289;DHT22;67539;48.752;12.922;2023-05-25T05:42:41;14.60;93.50
78289;DHT22;67539;48.752;12.922;2023-05-25T05:45:10;14.60;92.90
78289;DHT22;67539;48.752;12.922;2023-05-25T05:47:39;14.70;92.80
78289;DHT22;67539;48.752;12.922;2023-05-25T05:50:08;14.70;92.20
78289;DHT22;67539;48.752;12.922;2023-05-25T05:52:38;14.70;92.10
78289;DHT22;67539;48.752;12.922;2023-05-25T05:55:06;14.70;92.00
78289;DHT22;67539;48.752;12.922;2023-05-25T05:57:37;14.70;92.20
78289;DHT22;67539;48.752;12.922;2023-05-25T06:00:06;14.80;92.50
78289;DHT22;67539;48.752;12.922;2023-05-25T06:02:42;14.90;92.70
78289;DHT22;67539;48.752;12.922;2023-05-25T06:05:17;14.90;92.20
78289;DHT22;67539;48.752;12.922;2023-05-25T06:07:46;15.00;92.50
78289;DHT22;67539;48.752;12.922;2023-05-25T06:10:17;15.00;92.40
78289;DHT22;67539;48.752;12.922;2023-05-25T06:12:46;15.10;92.40
78289;DHT22;67539;48.752;12.922;2023-05-25T06:15:14;15.20;92.30
78289;DHT22;67539;48.752;12.922;2023-05-25T06:17:46;15.20;92.30
78289;DHT22;67539;48.752;12.922;2023-05-25T06:20:15;15.30;92.00
78289;DHT22;67539;48.752;12.922;2023-05-25T06:22:44;15.30;91.90
78289;DHT22;67539;48.752;12.922;2023-05-25T06:25:13;15.40;92.10
78289;DHT22;67539;48.752;12.922;2023-05-25T06:27:41;15.50;91.30
78289;DHT22;67539;48.752;12.922;2023-05-25T06:30:11;15.50;90.80
78289;DHT22;67539;48.752;12.922;2023-05-25T06:32:40;15.60;91.10
78289;DHT22;67539;48.752;12.922;2023-05-25T06:35:10;15.60;91.00
78289;DHT22;67539;48.752;12.922;2023-05-25T06:37:47;15.60;90.90
78289;DHT22;67539;48.752;12.922;2023-05-25T06:40:17;15.70;90.90
78289;DHT22;67539;48.752;12.922;2023-05-25T06:42:45;15.80;91.10
78289;DHT22;67539;48.752;12.922;2023-05-25T06:45:33;15.90;90.90
78289;DHT22;67539;48.752;12.922;2023-05-25T06:48:02;16.00;90.80
78289;DHT22;67539;48.752;12.922;2023-05-25T06:50:31;16.10;90.70
78289;DHT22;67539;48.752;12.922;2023-05-25T06:52:59;16.20;90.70
78289;DHT22;67539;48.752;12.922;2023-05-25T06:55:27;16.30;90.60
78289;DHT22;67539;48.752;12.922;2023-05-25T06:57:55;16.40;90.00
78289;DHT22;67539;48.752;12.922;2023-05-25T07:00:23;16.40;89.60
78289;DHT22;67539;48.752;12.922;2023-05-25T07:02:52;16.60;90.40
78289;DHT22;67539;48.752;12.922;2023-05-25T07:05:20;16.70;90.40
78289;DHT22;67539;48.752;12.922;2023-05-25T07:07:50;16.80;90.10
78289;DHT22;67539;48.752;12.922;2023-05-25T07:10:18;16.80;88.60
78289;DHT22;67539;48.752;12.922;2023-05-25T07:12:45;16.90;88.00
78289;DHT22;67539;48.752;12.922;2023-05-25T07:15:14;17.00;89.00
78289;DHT22;67539;48.752;12.922;2023-05-25T07:17:42;17.10;89.10
78289;DHT22;67539;48.752;12.922;2023-05-25T07:20:11;17.10;87.90
78289;DHT22;67539;48.752;12.922;2023-05-25T07:22:40;17.20;87.20
78289;DHT22;67539;48.752;12.922;2023-05-25T07:25:10;17.30;87.80
78289;DHT22;67539;48.752;12.922;2023-05-25T07:27:38;17.40;87.00
78289;DHT22;67539;48.752;12.922;2023-05-25T07:30:09;17.50;86.50
78289;DHT22;67539;48.752;12.922;2023-05-25T07:32:37;17.60;87.50
78289;DHT22;67539;48.752;12.922;2023-05-25T07:35:06;17.60;87.00
78289;DHT22;67539;48.752;12.922;2023-05-25T07:37:34;17.70;86.10
78289;DHT22;67539;48.752;12.922;2023-05-25T07:40:02;17.70;84.00
78289;DHT22;67539;48.752;12.922;2023-05-25T07:42:31;17.80;84.80
78289;DHT22;67539;48.752;12.922;2023-05-25T07:45:01;17.90;84.90
78289;DHT22;67539;48.752;12.922;2023-05-25T07:47:29;17.90;82.10
78289;DHT22;67539;48.752;12.922;2023-05-25T07:49:57;18.00;82.20
78289;DHT22;67539;48.752;12.922;2023-05-25T07:52:25;18.00;82.60
78289;DHT22;67539;48.752;12.922;2023-05-25T07:54:53;18.10;83.30
78289;DHT22;67539;48.752;12.922;2023-05-25T07:57:21;18.10;81.10
78289;DHT22;67539;48.752;12.922;2023-05-25T07:59:50;18.20;81.30
78289;DHT22;67539;48.752;12.922;2023-05-25T08:02:18;18.30;82.20
78289;DHT22;67539;48.752;12.922;2023-05-25T08:04:47;18.40;81.80
78289;DHT22;67539;48.752;12.922;2023-05-25T08:07:17;18.50;82.30
78289;DHT22;67539;48.752;12.922;2023-05-25T08:09:45;18.60;81.50
78289;DHT22;67539;48.752;12.922;2023-05-25T08:12:13;18.70;82.00
78289;DHT22;67539;48.752;12.922;2023-05-25T08:15:04;18.80;80.80
78289;DHT22;67539;48.752;12.922;2023-05-25T08:17:32;18.90;80.40
78289;DHT22;67539;48.752;12.922;2023-05-25T08:20:00;18.90;80.10
78289;DHT22;67539;48.752;12.922;2023-05-25T08:22:31;19.00;79.60
78289;DHT22;67539;48.752;12.922;2023-05-25T08:24:58;19.00;77.10
78289;DHT22;67539;48.752;12.922;2023-05-25T08:27:27;19.00;77.30
78289;DHT22;67539;48.752;12.922;2023-05-25T08:29:55;19.10;78.90
78289;DHT22;67539;48.752;12.922;2023-05-25T08:32:24;19.20;79.70
78289;DHT22;67539;48.752;12.922;2023-05-25T08:34:52;19.30;79.20
78289;DHT22;67539;48.752;12.922;2023-05-25T08:37:20;19.30;76.60
78289;DHT22;67539;48.752;12.922;2023-05-25T08:39:49;19.40;75.10
78289;DHT22;67539;48.752;12.922;2023-05-25T08:42:17;19.40;76.60
78289;DHT22;67539;48.752;12.922;2023-05-25T08:44:45;19.40;74.90
78289;DHT22;67539;48.752;12.922;2023-05-25T08:47:16;19.40;74.60
78289;DHT22;67539;48.752;12.922;2023-05-25T08:49:48;19.40;72.60
78289;DHT22;67539;48.752;12.922;2023-05-25T08:52:20;19.40;72.40
78289;DHT22;67539;48.752;12.922;2023-05-25T08:54:50;19.40;72.20
78289;DHT22;67539;48.752;12.922;2023-05-25T08:57:24;19.40;75.00
78289;DHT22;67539;48.752;12.922;2023-05-25T09:00:01;19.60;75.10
78289;DHT22;67539;48.752;12.922;2023-05-25T09:02:37;19.60;74.30
78289;DHT22;67539;48.752;12.922;2023-05-25T09:05:08;19.80;74.30
78289;DHT22;67539;48.752;12.922;2023-05-25T09:07:36;19.80;69.60
78289;DHT22;67539;48.752;12.922;2023-05-25T09:10:07;19.70;70.00
78289;DHT22;67539;48.752;12.922;2023-05-25T09:12:36;19.70;71.00
78289;DHT22;67539;48.752;12.922;2023-05-25T09:15:05;19.90;72.40
78289;DHT22;67539;48.752;12.922;2023-05-25T09:17:33;20.00;74.00
78289;DHT22;67539;48.752;12.922;2023-05-25T09:20:04;20.10;74.00
78289;DHT22;67539;48.752;12.922;2023-05-25T09:22:34;20.30;73.80
78289;DHT22;67539;48.752;12.922;2023-05-25T09:25:06;20.40;71.60
78289;DHT22;67539;48.752;12.922;2023-05-25T09:27:35;20.40;66.30
78289;DHT22;67539;48.752;12.922;2023-05-25T09:30:05;20.40;64.40
78289;DHT22;67539;48.752;12.922;2023-05-25T09:32:33;20.30;67.30
78289;DHT22;67539;48.752;12.922;2023-05-25T09:35:09;20.40;69.60
78289;DHT22;67539;48.752;12.922;2023-05-25T09:37:39;20.50;69.10
78289;DHT22;67539;48.752;12.922;2023-05-25T09:40:09;20.60;70.10
78289;DHT22;67539;48.752;12.922;2023-05-25T09:42:38;20.70;70.00
78289;DHT22;67539;48.752;12.922;2023-05-25T09:45:06;20.80;66.30
78289;DHT22;67539;48.752;12.922;2023-05-25T09:47:35;20.70;64.10
78289;DHT22;67539;48.752;12.922;2023-05-25T09:50:05;20.70;63.80
78289;DHT22;67539;48.752;12.922;2023-05-25T09:52:34;20.50;65.80
78289;DHT22;67539;48.752;12.922;2023-05-25T09:55:08;20.50;66.20
78289;DHT22;67539;48.752;12.922;2023-05-25T09:57:37;20.70;68.80
78289;DHT22;67539;48.752;12.922;2023-05-25T10:00:06;20.80;67.50
78289;DHT22;67539;48.752;12.922;2023-05-25T10:02:40;20.90;67.90
78289;DHT22;67539;48.752;12.922;2023-05-25T10:05:08;21.10;68.10
78289;DHT22;67539;48.752;12.922;2023-05-25T10:07:38;21.30;70.60
78289;DHT22;67539;48.752;12.922;2023-05-25T10:10:09;21.40;69.90
78289;DHT22;67539;48.752;12.922;2023-05-25T10:12:41;21.60;68.90
78289;DHT22;67539;48.752;12.922;2023-05-25T10:15:11;21.70;68.20
78289;DHT22;67539;48.752;12.922;2023-05-25T10:17:43;21.80;64.20
78289;DHT22;67539;48.752;12.922;2023-05-25T10:20:13;21.70;62.00
78289;DHT22;67539;48.752;12.922;2023-05-25T10:22:44;21.50;62.90
78289;DHT22;67539;48.752;12.922;2023-05-25T10:25:20;21.60;65.90
78289;DHT22;67539;48.752;12.922;2023-05-25T10:27:55;21.80;67.40
78289;DHT22;67539;48.752;12.922;2023-05-25T10:30:25;21.90;67.20
78289;DHT22;67539;48.752;12.922;2023-05-25T10:32:54;22.00;62.30
78289;DHT22;67539;48.752;12.922;2023-05-25T10:35:23;22.00;61.20
78289;DHT22;67539;48.752;12.922;2023-05-25T10:37:52;22.00;66.00
78289;DHT22;67539;48.752;12.922;2023-05-25T10:40:22;22.10;65.00
78289;DHT22;67539;48.752;12.922;2023-05-25T10:42:51;22.30;65.60
78289;DHT22;67539;48.752;12.922;2023-05-25T10:45:20;22.40;66.30
78289;DHT22;67539;48.752;12.922;2023-05-25T10:47:48;22.50;63.60
78289;DHT22;67539;48.752;12.922;2023-05-25T10:50:21;22.60;65.20
78289;DHT22;67539;48.752;12.922;2023-05-25T10:52:57;22.70;65.30
78289;DHT22;67539;48.752;12.922;2023-05-25T10:55:29;22.80;64.60
78289;DHT22;67539;48.752;12.922;2023-05-25T10:58:11;22.90;64.40
78289;DHT22;67539;48.752;12.922;2023-05-25T11:00:39;23.00;65.10
78289;DHT22;67539;48.752;12.922;2023-05-25T11:03:09;23.10;65.10
78289;DHT22;67539;48.752;12.922;2023-05-25T11:05:38;23.00;58.60
78289;DHT22;67539;48.752;12.922;2023-05-25T11:08:08;23.00;63.90
78289;DHT22;67539;48.752;12.922;2023-05-25T11:10:50;23.00;61.90
78289;DHT22;67539;48.752;12.922;2023-05-25T11:13:32;23.10;62.40
78289;DHT22;67539;48.752;12.922;2023-05-25T11:16:14;23.10;63.30
78289;DHT22;67539;48.752;12.922;2023-05-25T11:18:44;23.20;63.10
78289;DHT22;67539;48.752;12.922;2023-05-25T11:21:14;23.30;62.30
78289;DHT22;67539;48.752;12.922;2023-05-25T11:23:57;23.40;62.40
78289;DHT22;67539;48.752;12.922;2023-05-25T11:26:28;23.40;57.30
78289;DHT22;67539;48.752;12.922;2023-05-25T11:28:57;23.30;58.50
78289;DHT22;67539;48.752;12.922;2023-05-25T11:31:29;23.30;57.80
78289;DHT22;67539;48.752;12.922;2023-05-25T11:34:04;23.30;57.50
78289;DHT22;67539;48.752;12.922;2023-05-25T11:36:34;23.20;57.20
78289;DHT22;67539;48.752;12.922;2023-05-25T11:39:03;23.00;57.10
78289;DHT22;67539;48.752;12.922;2023-05-25T11:41:47;22.90;59.50
78289;DHT22;67539;48.752;12.922;2023-05-25T11:44:24;23.00;59.00
78289;DHT22;67539;48.752;12.922;2023-05-25T11:46:54;23.10;60.50
78289;DHT22;67539;48.752;12.922;2023-05-25T11:49:24;23.20;60.00
78289;DHT22;67539;48.752;12.922;2023-05-25T11:51:52;23.30;60.00
78289;DHT22;67539;48.752;12.922;2023-05-25T11:54:24;23.30;62.20
78289;DHT22;67539;48.752;12.922;2023-05-25T11:56:55;23.30;62.50
78289;DHT22;67539;48.752;12.922;2023-05-25T11:59:25;23.40;56.70
78289;DHT22;67539;48.752;12.922;2023-05-25T12:01:58;23.40;59.00
78289;DHT22;67539;48.752;12.922;2023-05-25T12:04:27;23.50;62.30
78289;DHT22;67539;48.752;12.922;2023-05-25T12:07:02;23.60;61.80
78289;DHT22;67539;48.752;12.922;2023-05-25T12:09:30;23.70;60.50
78289;DHT22;67539;48.752;12.922;2023-05-25T12:12:02;23.80;60.30
78289;DHT22;67539;48.752;12.922;2023-05-25T12:14:31;23.90;61.60
78289;DHT22;67539;48.752;12.922;2023-05-25T12:17:02;24.00;62.70
78289;DHT22;67539;48.752;12.922;2023-05-25T12:19:30;24.20;61.60
78289;DHT22;67539;48.752;12.922;2023-05-25T12:21:59;24.30;60.20
78289;DHT22;67539;48.752;12.922;2023-05-25T12:24:27;24.50;61.60
78289;DHT22;67539;48.752;12.922;2023-05-25T12:26:55;24.60;60.80
78289;DHT22;67539;48.752;12.922;2023-05-25T12:29:26;24.70;60.50
78289;DHT22;67539;48.752;12.922;2023-05-25T12:32:01;24.80;61.40
78289;DHT22;67539;48.752;12.922;2023-05-25T12:34:30;24.80;56.30
78289;DHT22;67539;48.752;12.922;2023-05-25T12:36:58;24.70;57.60
78289;DHT22;67539;48.752;12.922;2023-05-25T12:39:33;24.80;60.90
78289;DHT22;67539;48.752;12.922;2023-05-25T12:42:11;24.90;58.90
78289;DHT22;67539;48.752;12.922;2023-05-25T12:44:43;24.90;58.10
78289;DHT22;67539;48.752;12.922;2023-05-25T12:47:13;24.90;55.30
78289;DHT22;67539;48.752;12.922;2023-05-25T12:49:42;24.80;55.80
78289;DHT22;67539;48.752;12.922;2023-05-25T12:52:30;24.90;56.60
78289;DHT22;67539;48.752;12.922;2023-05-25T12:57:42;24.40;54.70
78289;DHT22;67539;48.752;12.922;2023-05-25T13:00:12;24.30;55.20
78289;DHT22;67539;48.752;12.922;2023-05-25T13:02:42;24.50;59.00
78289;DHT22;67539;48.752;12.922;2023-05-25T13:05:18;24.70;58.90
78289;DHT22;67539;48.752;12.922;2023-05-25T13:07:46;25.00;58.80
78289;DHT22;67539;48.752;12.922;2023-05-25T13:10:15;25.20;58.30
78289;DHT22;67539;48.752;12.922;2023-05-25T13:12:44;25.30;56.50
78289;DHT22;67539;48.752;12.922;2023-05-25T13:15:15;25.30;54.90
78289;DHT22;67539;48.752;12.922;2023-05-25T13:17:44;25.20;54.20
78289;DHT22;67539;48.752;12.922;2023-05-25T13:20:12;25.00;56.30
78289;DHT22;67539;48.752;12.922;2023-05-25T13:22:42;25.00;53.70
78289;DHT22;67539;48.752;12.922;2023-05-25T13:25:11;24.70;53.80
78289;DHT22;67539;48.752;12.922;2023-05-25T13:27:42;24.40;55.60
78289;DHT22;67539;48.752;12.922;2023-05-25T13:30:11;24.20;53.70
78289;DHT22;67539;48.752;12.922;2023-05-25T13:32:41;24.10;55.30
78289;DHT22;67539;48.752;12.922;2023-05-25T13:35:10;24.30;55.20
78289;DHT22;67539;48.752;12.922;2023-05-25T13:37:44;24.40;56.30
78289;DHT22;67539;48.752;12.922;2023-05-25T13:40:12;24.60;54.40
78289;DHT22;67539;48.752;12.922;2023-05-25T13:42:41;24.70;54.80
78289;DHT22;67539;48.752;12.922;2023-05-25T13:45:09;24.60;55.20
78289;DHT22;67539;48.752;12.922;2023-05-25T13:47:37;24.70;55.80
78289;DHT22;67539;48.752;12.922;2023-05-25T13:50:07;24.90;54.20
78289;DHT22;67539;48.752;12.922;2023-05-25T13:52:36;25.40;52.70
78289;DHT22;67539;48.752;12.922;2023-05-25T13:55:04;26.00;53.70
78289;DHT22;67539;48.752;12.922;2023-05-25T13:57:33;26.80;51.00
78289;DHT22;67539;48.752;12.922;2023-05-25T14:00:01;28.10;51.40
78289;DHT22;67539;48.752;12.922;2023-05-25T14:02:32;29.50;47.70
78289;DHT22;67539;48.752;12.922;2023-05-25T14:05:01;30.50;47.40
78289;DHT22;67539;48.752;12.922;2023-05-25T14:07:30;31.60;47.20
78289;DHT22;67539;48.752;12.922;2023-05-25T14:09:58;32.70;44.50
78289;DHT22;67539;48.752;12.922;2023-05-25T14:12:26;33.50;42.10
78289;DHT22;67539;48.752;12.922;2023-05-25T14:14:54;33.30;40.40
78289;DHT22;67539;48.752;12.922;2023-05-25T14:17:23;33.10;39.40
78289;DHT22;67539;48.752;12.922;2023-05-25T14:19:51;33.00;40.10
78289;DHT22;67539;48.752;12.922;2023-05-25T14:22:19;33.40;41.00
78289;DHT22;67539;48.752;12.922;2023-05-25T14:24:49;32.90;40.70
78289;DHT22;67539;48.752;12.922;2023-05-25T14:27:17;33.80;40.20
78289;DHT22;67539;48.752;12.922;2023-05-25T14:29:47;34.50;40.30
78289;DHT22;67539;48.752;12.922;2023-05-25T14:32:15;33.60;39.70
78289;DHT22;67539;48.752;12.922;2023-05-25T14:34:43;33.00;38.60
78289;DHT22;67539;48.752;12.922;2023-05-25T14:37:11;33.20;40.60
78289;DHT22;67539;48.752;12.922;2023-05-25T14:39:39;33.10;41.30
78289;DHT22;67539;48.752;12.922;2023-05-25T14:42:09;32.40;39.90
78289;DHT22;67539;48.752;12.922;2023-05-25T14:44:37;31.80;40.80
78289;DHT22;67539;48.752;12.922;2023-05-25T14:47:06;31.40;41.40
78289;DHT22;67539;48.752;12.922;2023-05-25T14:49:35;31.10;42.00
78289;DHT22;67539;48.752;12.922;2023-05-25T14:52:03;31.20;41.00
78289;DHT22;67539;48.752;12.922;2023-05-25T14:54:31;31.20;42.20
78289;DHT22;67539;48.752;12.922;2023-05-25T14:56:59;30.80;41.70
78289;DHT22;67539;48.752;12.922;2023-05-25T14:59:29;31.20;42.90
78289;DHT22;67539;48.752;12.922;2023-05-25T15:01:57;31.80;41.70
78289;DHT22;67539;48.752;12.922;2023-05-25T15:04:25;31.40;41.50
78289;DHT22;67539;48.752;12.922;2023-05-25T15:06:55;31.40;41.80
78289;DHT22;67539;48.752;12.922;2023-05-25T15:09:23;31.40;41.50
78289;DHT22;67539;48.752;12.922;2023-05-25T15:11:51;31.50;41.60
78289;DHT22;67539;48.752;12.922;2023-05-25T15:14:20;31.60;42.00
78289;DHT22;67539;48.752;12.922;2023-05-25T15:16:49;31.70;41.20
78289;DHT22;67539;48.752;12.922;2023-05-25T15:19:17;31.60;41.80
78289;DHT22;67539;48.752;12.922;2023-05-25T15:21:45;31.80;42.10
78289;DHT22;67539;48.752;12.922;2023-05-25T15:24:13;30.70;41.10
78289;DHT22;67539;48.752;12.922;2023-05-25T15:26:42;29.70;42.40
78289;DHT22;67539;48.752;12.922;2023-05-25T15:29:10;29.80;43.70
78289;DHT22;67539;48.752;12.922;2023-05-25T15:31:38;30.50;42.20
78289;DHT22;67539;48.752;12.922;2023-05-25T15:34:08;31.00;42.30
78289;DHT22;67539;48.752;12.922;2023-05-25T15:36:37;31.90;41.40